createdAt,value
2022-11-05T00:00:32.509Z,96.10
2022-11-05T00:03:18.137Z,96.10
2022-11-05T00:06:03.946Z,96.00
2022-11-05T00:08:50.405Z,96.00
2022-11-05T00:11:18.645Z,95.90
2022-11-05T00:14:03.839Z,95.90
2022-11-05T00:16:46.870Z,96.00
2022-11-05T00:19:14.972Z,96.00
2022-11-05T00:22:05.916Z,96.00
2022-11-05T00:24:52.566Z,96.20
2022-11-05T00:27:20.435Z,96.30
2022-11-05T00:29:48.334Z,96.40
2022-11-05T00:32:16.195Z,96.40
2022-11-05T00:34:44.053Z,96.50
2022-11-05T00:37:11.928Z,96.50
2022-11-05T00:39:41.174Z,96.50
2022-11-05T00:42:41.048Z,96.50
2022-11-05T00:45:09.644Z,96.40
2022-11-05T00:47:54.920Z,96.30
2022-11-05T00:50:23.527Z,96.20
2022-11-05T00:52:59.296Z,96.20
2022-11-05T00:55:33.229Z,96.10
2022-11-05T00:58:02.708Z,96.20
2022-11-05T01:00:32.138Z,96.20
2022-11-05T01:03:01.586Z,96.20
2022-11-05T01:05:30.901Z,96.20
2022-11-05T01:07:58.990Z,96.20
2022-11-05T01:10:28.564Z,96.10
2022-11-05T01:12:56.445Z,96.00
2022-11-05T01:15:24.663Z,96.10
2022-11-05T01:17:53.060Z,96.20
2022-11-05T01:20:21.129Z,96.10
2022-11-05T01:22:49.076Z,96.10
2022-11-05T01:25:17.043Z,96.20
2022-11-05T01:27:46.600Z,96.20
2022-11-05T01:30:14.884Z,96.20
2022-11-05T01:32:42.999Z,96.30
2022-11-05T01:35:14.601Z,96.30
2022-11-05T01:37:42.508Z,96.40
2022-11-05T01:40:13.107Z,96.50
2022-11-05T01:42:41.007Z,96.50
2022-11-05T01:45:15.922Z,96.60
2022-11-05T01:47:52.544Z,96.60
2022-11-05T01:50:40.945Z,96.50
2022-11-05T01:53:19.534Z,96.60
2022-11-05T01:55:54.754Z,96.50
2022-11-05T01:58:25.593Z,96.50
2022-11-05T02:00:56.218Z,95.20
2022-11-05T02:03:24.883Z,94.50
2022-11-05T02:05:56.219Z,96.50
2022-11-05T02:08:36.539Z,96.30
2022-11-05T02:11:04.710Z,96.70
2022-11-05T02:13:32.597Z,97.00
2022-11-05T02:16:07.768Z,96.70
2022-11-05T02:18:50.997Z,96.80
2022-11-05T02:21:50.967Z,96.90
2022-11-05T02:24:46.810Z,97.30
2022-11-05T02:27:21.809Z,96.70
2022-11-05T02:30:05.034Z,96.20
2022-11-05T02:33:03.794Z,96.10
2022-11-05T02:35:49.671Z,95.50
2022-11-05T02:38:25.976Z,95.00
2022-11-05T02:41:00.686Z,96.10
2022-11-05T02:43:37.889Z,97.40
2022-11-05T02:46:20.524Z,97.20
2022-11-05T02:48:56.628Z,96.90
2022-11-05T02:51:32.552Z,96.90
2022-11-05T02:54:06.357Z,97.50
2022-11-05T02:56:36.404Z,95.30
2022-11-05T02:59:04.302Z,95.80
2022-11-05T03:01:32.273Z,95.50
2022-11-05T03:04:04.649Z,95.60
2022-11-05T03:06:53.025Z,94.80
2022-11-05T03:09:55.686Z,94.40
2022-11-05T03:12:32.068Z,95.40
2022-11-05T03:15:11.002Z,93.60
2022-11-05T03:17:45.038Z,94.60
2022-11-05T03:20:20.169Z,95.80
2022-11-05T03:22:53.733Z,97.60
2022-11-05T03:25:24.702Z,95.40
2022-11-05T03:27:58.459Z,97.10
2022-11-05T03:30:26.982Z,96.60
2022-11-05T03:33:00.087Z,98.00
2022-11-05T03:35:32.453Z,97.20
2022-11-05T03:38:03.920Z,97.30
2022-11-05T03:40:36.296Z,97.50
2022-11-05T03:43:09.497Z,97.40
2022-11-05T03:45:41.709Z,97.20
2022-11-05T03:48:13.634Z,97.30
2022-11-05T03:50:50.498Z,97.50
2022-11-05T03:53:23.493Z,97.60
2022-11-05T03:56:00.115Z,97.40
2022-11-05T03:58:29.694Z,97.60
2022-11-05T04:01:00.463Z,97.50
2022-11-05T04:03:28.366Z,97.10
2022-11-05T04:06:15.363Z,97.10
2022-11-05T04:09:00.716Z,96.90
2022-11-05T04:11:46.142Z,96.70
2022-11-05T04:14:13.994Z,96.50
2022-11-05T04:16:59.394Z,96.60
2022-11-05T04:19:41.165Z,96.40
2022-11-05T04:22:28.063Z,96.60
2022-11-05T04:24:55.941Z,97.00
2022-11-05T04:27:23.813Z,97.10
2022-11-05T04:30:09.226Z,96.90
2022-11-05T04:32:37.599Z,96.70
2022-11-05T04:35:05.911Z,96.50
2022-11-05T04:37:35.117Z,96.50
2022-11-05T04:40:02.999Z,96.50
2022-11-05T04:42:30.864Z,96.60
2022-11-05T04:44:58.747Z,96.50
2022-11-05T04:47:26.617Z,96.50
2022-11-05T04:49:54.474Z,96.40
2022-11-05T04:52:22.330Z,96.30
2022-11-05T04:54:51.544Z,96.40
2022-11-05T04:57:19.417Z,96.40
2022-11-05T04:59:49.310Z,96.40
2022-11-05T05:02:17.240Z,95.90
2022-11-05T05:04:45.845Z,94.70
2022-11-05T05:07:13.734Z,96.00
2022-11-05T05:09:41.645Z,96.70
2022-11-05T05:12:10.866Z,96.90
2022-11-05T05:14:38.837Z,95.30
2022-11-05T05:17:06.740Z,96.70
2022-11-05T05:19:55.344Z,96.70
2022-11-05T05:22:22.234Z,96.70
2022-11-05T05:24:52.769Z,96.50
2022-11-05T05:27:22.770Z,96.40
2022-11-05T05:29:50.724Z,96.20
2022-11-05T05:32:18.636Z,96.30
2022-11-05T05:34:46.476Z,96.30
2022-11-05T05:37:14.411Z,96.10
2022-11-05T05:39:44.449Z,96.20
2022-11-05T05:42:12.437Z,96.30
2022-11-05T05:44:41.717Z,96.10
2022-11-05T05:47:09.840Z,95.90
2022-11-05T05:49:37.707Z,95.80
2022-11-05T05:52:05.967Z,95.70
2022-11-05T05:54:38.303Z,95.60
2022-11-05T05:57:09.303Z,95.50
2022-11-05T05:59:37.176Z,95.40
2022-11-05T06:02:06.544Z,95.40
2022-11-05T06:04:34.531Z,95.50
2022-11-05T06:07:02.397Z,95.60
2022-11-05T06:09:30.259Z,95.50
2022-11-05T06:11:58.114Z,95.70
2022-11-05T06:14:25.993Z,95.50
2022-11-05T06:16:53.901Z,96.00
2022-11-05T06:19:23.131Z,96.00
2022-11-05T06:21:51.006Z,96.00
2022-11-05T06:24:18.887Z,96.10
2022-11-05T06:26:46.735Z,95.70
2022-11-05T06:29:16.457Z,96.30
2022-11-05T06:31:44.399Z,95.40
2022-11-05T06:34:12.341Z,96.10
2022-11-05T06:36:41.535Z,96.80
2022-11-05T06:39:11.233Z,97.00
2022-11-05T06:42:03.945Z,93.60
2022-11-05T06:44:27.281Z,96.80
2022-11-05T06:46:55.173Z,93.30
2022-11-05T06:49:24.585Z,95.50
2022-11-05T06:51:53.850Z,97.10
2022-11-05T06:54:21.823Z,95.70
2022-11-05T06:56:49.733Z,95.10
2022-11-05T06:59:17.748Z,96.70
2022-11-05T07:01:45.702Z,97.50
2022-11-05T07:04:13.858Z,97.30
2022-11-05T07:06:41.722Z,97.10
2022-11-05T07:09:10.928Z,97.10
2022-11-05T07:11:38.787Z,93.40
2022-11-05T07:14:06.655Z,93.00
2022-11-05T07:16:34.514Z,93.00
2022-11-05T07:19:02.826Z,93.50
2022-11-05T07:21:30.713Z,93.60
2022-11-05T07:24:03.278Z,93.70
2022-11-05T07:26:34.669Z,94.10
2022-11-05T07:29:02.890Z,94.30
2022-11-05T07:31:30.823Z,94.50
2022-11-05T07:33:59.404Z,94.50
2022-11-05T07:36:27.380Z,94.40
2022-11-05T07:39:00.088Z,94.30
2022-11-05T07:41:29.278Z,94.30
2022-11-05T07:43:58.533Z,94.50
2022-11-05T07:46:26.404Z,94.80
2022-11-05T07:48:54.269Z,94.90
2022-11-05T07:51:22.270Z,94.90
2022-11-05T07:53:50.120Z,94.90
2022-11-05T07:56:18.225Z,94.90
2022-11-05T07:58:46.097Z,95.20
2022-11-05T08:01:15.432Z,95.30
2022-11-05T08:03:43.421Z,95.20
2022-11-05T08:06:11.378Z,95.20
2022-11-05T08:08:39.289Z,92.70
2022-11-05T08:11:09.452Z,92.00
2022-11-05T08:13:37.949Z,91.80
2022-11-05T08:16:06.738Z,91.80
2022-11-05T08:18:36.025Z,91.90
2022-11-05T08:21:06.293Z,91.90
2022-11-05T08:23:34.538Z,92.40
2022-11-05T08:26:04.653Z,92.50
2022-11-05T08:28:32.607Z,92.60
2022-11-05T08:31:00.523Z,93.20
2022-11-05T08:33:31.181Z,93.10
2022-11-05T08:36:03.231Z,93.20
2022-11-05T08:38:31.421Z,93.30
2022-11-05T08:41:00.421Z,93.40
2022-11-05T08:43:28.432Z,93.50
2022-11-05T08:45:56.298Z,93.90
2022-11-05T08:48:24.166Z,93.80
2022-11-05T08:50:52.075Z,94.00
2022-11-05T08:53:21.403Z,94.10
2022-11-05T08:55:50.988Z,94.10
2022-11-05T08:58:20.096Z,93.00
2022-11-05T09:00:50.170Z,93.20
2022-11-05T09:03:18.798Z,93.10
2022-11-05T09:05:46.675Z,93.00
2022-11-05T09:08:16.689Z,92.80
2022-11-05T09:10:46.619Z,92.50
2022-11-05T09:13:18.844Z,92.40
2022-11-05T09:15:48.531Z,92.20
2022-11-05T09:18:17.141Z,92.00
2022-11-05T09:20:45.354Z,91.60
2022-11-05T09:23:15.120Z,91.80
2022-11-05T09:25:43.426Z,92.40
2022-11-05T09:28:17.945Z,92.80
2022-11-05T09:30:47.627Z,92.80
2022-11-05T09:33:16.447Z,92.70
2022-11-05T09:35:44.823Z,92.30
2022-11-05T09:38:12.716Z,92.50
2022-11-05T09:40:44.108Z,92.40
2022-11-05T09:43:19.705Z,92.30
2022-11-05T09:45:50.108Z,92.00
2022-11-05T09:48:19.892Z,92.10
2022-11-05T09:50:48.477Z,92.20
2022-11-05T09:53:19.707Z,92.10
2022-11-05T09:55:50.557Z,91.90
2022-11-05T09:58:28.521Z,91.80
2022-11-05T10:00:57.883Z,91.40
2022-11-05T10:03:28.973Z,91.10
2022-11-05T10:06:04.539Z,90.90
2022-11-05T10:08:39.231Z,90.90
2022-11-05T10:11:12.750Z,91.00
2022-11-05T10:13:47.707Z,91.00
2022-11-05T10:16:24.936Z,90.70
2022-11-05T10:18:56.410Z,91.00
2022-11-05T10:21:44.309Z,91.10
2022-11-05T10:24:15.772Z,91.20
2022-11-05T10:26:46.010Z,91.10
2022-11-05T10:29:23.454Z,90.70
2022-11-05T10:31:53.814Z,91.00
2022-11-05T10:34:23.264Z,90.90
2022-11-05T10:36:51.188Z,90.60
2022-11-05T10:39:20.829Z,90.30
2022-11-05T10:42:05.933Z,89.60
2022-11-05T10:44:40.857Z,88.60
2022-11-05T10:47:36.153Z,88.30
2022-11-05T10:50:10.411Z,87.70
2022-11-05T10:52:40.994Z,87.90
2022-11-05T10:55:18.114Z,87.80
2022-11-05T10:57:49.375Z,87.20
2022-11-05T11:00:28.265Z,86.60
2022-11-05T11:02:58.721Z,86.10
2022-11-05T11:05:30.948Z,85.50
2022-11-05T11:08:02.585Z,86.20
2022-11-05T11:10:33.624Z,85.60
2022-11-05T11:13:01.608Z,84.80
2022-11-05T11:15:32.659Z,84.10
2022-11-05T11:18:25.805Z,83.80
2022-11-05T11:20:53.858Z,83.80
2022-11-05T11:23:21.735Z,83.30
2022-11-05T11:25:53.793Z,83.50
2022-11-05T11:28:26.754Z,83.40
2022-11-05T11:31:06.773Z,82.80
2022-11-05T11:33:35.911Z,82.80
2022-11-05T11:36:04.124Z,82.80
2022-11-05T11:38:34.234Z,82.60
2022-11-05T11:41:21.599Z,82.20
2022-11-05T11:43:49.730Z,82.50
2022-11-05T11:46:21.370Z,82.90
2022-11-05T11:48:50.361Z,82.80
2022-11-05T11:51:20.900Z,82.30
2022-11-05T11:53:50.299Z,82.30
2022-11-05T11:56:20.122Z,82.20
2022-11-05T11:58:50.180Z,82.90
2022-11-05T12:01:50.023Z,83.20
2022-11-05T12:04:48.842Z,83.70
2022-11-05T12:07:39.330Z,83.00
2022-11-05T12:10:22.802Z,84.10
2022-11-05T12:13:01.521Z,85.10
2022-11-05T12:15:41.014Z,86.00
2022-11-05T12:18:18.694Z,86.60
2022-11-05T12:21:06.764Z,87.30
2022-11-05T12:23:58.254Z,87.50
2022-11-05T12:26:36.534Z,87.90
2022-11-05T12:29:32.863Z,88.50
2022-11-05T12:32:32.847Z,89.00
2022-11-05T12:35:13.041Z,89.20
2022-11-05T12:37:50.417Z,89.40
2022-11-05T12:40:44.031Z,89.50
2022-11-05T12:43:20.613Z,89.40
2022-11-05T12:45:55.468Z,90.00
2022-11-05T12:48:40.258Z,90.00
2022-11-05T12:51:21.011Z,90.10
2022-11-05T12:54:04.910Z,90.20
2022-11-05T12:56:36.702Z,90.20
2022-11-05T12:59:11.704Z,90.30
2022-11-05T13:01:44.458Z,90.30
2022-11-05T13:04:21.991Z,90.30
2022-11-05T13:06:53.983Z,90.50
2022-11-05T13:09:27.000Z,90.60
2022-11-05T13:11:58.297Z,90.50
2022-11-05T13:14:29.959Z,90.60
2022-11-05T13:17:03.106Z,90.70
2022-11-05T13:19:36.769Z,90.80
2022-11-05T13:22:16.510Z,90.60
2022-11-05T13:24:50.391Z,90.90
2022-11-05T13:27:42.551Z,90.50
2022-11-05T13:30:16.445Z,90.90
2022-11-05T13:32:48.239Z,90.90
2022-11-05T13:35:19.024Z,91.00
2022-11-05T13:38:11.190Z,91.00
2022-11-05T13:40:49.878Z,91.10
2022-11-05T13:43:44.089Z,91.10
2022-11-05T13:46:42.789Z,91.10
2022-11-05T13:49:41.110Z,91.20
2022-11-05T13:52:25.349Z,91.40
2022-11-05T13:55:13.821Z,91.50
2022-11-05T13:58:13.976Z,91.40
2022-11-05T14:00:47.830Z,91.30
2022-11-05T14:03:19.985Z,91.30
2022-11-05T14:05:55.036Z,91.30
2022-11-05T14:08:29.181Z,91.40
2022-11-05T14:11:04.872Z,91.30
2022-11-05T14:13:38.401Z,91.40
2022-11-05T14:16:08.907Z,91.30
2022-11-05T14:18:40.066Z,91.30
2022-11-05T14:21:49.892Z,91.40
2022-11-05T14:24:28.021Z,91.50
2022-11-05T14:27:34.310Z,91.20
2022-11-05T14:30:24.034Z,91.40
2022-11-05T14:32:53.068Z,91.50
2022-11-05T14:35:37.635Z,91.50
2022-11-05T14:38:07.346Z,91.50
2022-11-05T14:40:38.376Z,91.70
2022-11-05T14:43:08.878Z,91.40
2022-11-05T14:45:40.504Z,91.40
2022-11-05T14:48:26.868Z,91.40
2022-11-05T14:50:55.980Z,91.50
2022-11-05T14:53:33.367Z,91.50
2022-11-05T14:56:05.458Z,91.40
2022-11-05T14:58:36.388Z,91.60
2022-11-05T15:01:07.693Z,91.50
2022-11-05T15:04:04.407Z,91.50
2022-11-05T15:06:35.583Z,91.60
2022-11-05T15:09:30.676Z,92.00
2022-11-05T15:12:04.066Z,91.80
2022-11-05T15:14:35.609Z,92.00
2022-11-05T15:17:17.166Z,92.00
2022-11-05T15:19:46.698Z,91.80
2022-11-05T15:22:27.709Z,91.60
2022-11-05T15:24:56.210Z,90.90
2022-11-05T15:27:42.762Z,91.60
2022-11-05T15:30:16.804Z,88.20
2022-11-05T15:32:46.217Z,91.60
2022-11-05T15:35:24.624Z,92.60
2022-11-05T15:37:57.419Z,93.60
2022-11-05T15:40:31.648Z,94.20
2022-11-05T15:43:09.754Z,94.50
2022-11-05T15:45:38.026Z,95.20
2022-11-05T15:48:16.185Z,95.60
2022-11-05T15:50:44.144Z,95.90
2022-11-05T15:56:11.897Z,96.40
2022-11-05T15:58:47.213Z,96.80
2022-11-05T16:01:24.424Z,97.60
2022-11-05T16:03:55.386Z,98.10
2022-11-05T16:06:26.586Z,98.40
2022-11-05T16:08:54.521Z,98.50
2022-11-05T16:11:24.101Z,98.50
2022-11-05T16:13:52.109Z,96.60
2022-11-05T16:16:31.447Z,98.30
2022-11-05T16:19:00.914Z,99.70
2022-11-05T16:21:29.286Z,99.60
2022-11-05T16:23:59.395Z,99.20
2022-11-05T16:27:01.128Z,99.60
2022-11-05T16:29:27.859Z,98.40
2022-11-05T16:31:57.454Z,98.20
2022-11-05T16:34:30.936Z,98.20
2022-11-05T16:37:00.286Z,96.60
2022-11-05T16:39:28.155Z,99.90
2022-11-05T16:41:56.036Z,96.20
2022-11-05T16:44:24.220Z,98.00
2022-11-05T16:46:52.311Z,99.90
2022-11-05T16:49:20.140Z,99.90
2022-11-05T16:51:49.361Z,99.90
2022-11-05T16:54:17.204Z,99.90
2022-11-05T16:56:47.303Z,97.00
2022-11-05T16:59:15.336Z,98.80
2022-11-05T17:01:44.374Z,99.90
2022-11-05T17:04:14.001Z,99.90
2022-11-05T17:06:43.642Z,99.90
2022-11-05T17:09:12.854Z,94.30
2022-11-05T17:11:40.770Z,95.90
2022-11-05T17:14:10.469Z,96.50
2022-11-05T17:16:39.315Z,96.80
2022-11-05T17:19:07.498Z,97.30
2022-11-05T17:21:36.587Z,97.80
2022-11-05T17:24:04.629Z,97.90
2022-11-05T17:26:34.659Z,98.50
2022-11-05T17:29:02.821Z,98.60
2022-11-05T17:31:30.701Z,98.70
2022-11-05T17:33:59.234Z,99.20
2022-11-05T17:36:27.686Z,95.50
2022-11-05T17:38:55.660Z,99.20
2022-11-05T17:41:24.742Z,99.20
2022-11-05T17:43:56.556Z,99.10
2022-11-05T17:46:25.548Z,95.80
2022-11-05T17:48:53.594Z,97.80
2022-11-05T17:51:21.894Z,99.70
2022-11-05T17:53:50.092Z,99.70
2022-11-05T17:56:32.152Z,98.40
2022-11-05T17:59:03.841Z,99.50
2022-11-05T18:01:34.621Z,99.90
2022-11-05T18:04:08.305Z,99.60
2022-11-05T18:06:37.309Z,99.70
2022-11-05T18:09:05.673Z,99.70
2022-11-05T18:11:34.223Z,99.60
2022-11-05T18:14:03.799Z,99.80
2022-11-05T18:16:31.749Z,99.90
2022-11-05T18:18:59.759Z,99.80
2022-11-05T18:21:27.646Z,99.70
2022-11-05T18:23:55.657Z,99.70
2022-11-05T18:26:23.659Z,99.80
2022-11-05T18:28:51.538Z,99.60
2022-11-05T18:31:22.470Z,99.00
2022-11-05T18:33:51.347Z,99.30
2022-11-05T18:36:19.948Z,99.30
2022-11-05T18:38:48.433Z,99.30
2022-11-05T18:41:16.894Z,99.20
2022-11-05T18:43:44.850Z,99.10
2022-11-05T18:46:35.887Z,99.50
2022-11-05T18:49:02.660Z,99.30
2022-11-05T18:51:30.605Z,99.40
2022-11-05T18:53:58.536Z,99.00
2022-11-05T18:56:26.439Z,99.30
2022-11-05T18:59:14.797Z,99.20
2022-11-05T19:01:43.119Z,99.30
2022-11-05T19:04:12.885Z,99.40
2022-11-05T19:06:41.405Z,99.30
2022-11-05T19:09:11.920Z,99.40
2022-11-05T19:11:40.795Z,97.30
2022-11-05T19:14:08.945Z,99.40
2022-11-05T19:16:36.961Z,99.40
2022-11-05T19:19:06.373Z,99.30
2022-11-05T19:21:35.604Z,99.30
2022-11-05T19:24:04.661Z,99.10
2022-11-05T19:26:32.993Z,99.10
2022-11-05T19:29:02.150Z,98.90
2022-11-05T19:31:30.695Z,98.70
2022-11-05T19:33:58.641Z,98.90
2022-11-05T19:36:26.959Z,99.00
2022-11-05T19:38:58.392Z,98.90
2022-11-05T19:41:27.557Z,98.90
2022-11-05T19:43:57.813Z,98.70
2022-11-05T19:46:26.065Z,98.90
2022-11-05T19:48:54.136Z,98.90
2022-11-05T19:51:24.012Z,98.80
2022-11-05T19:53:53.677Z,98.90
2022-11-05T19:56:25.212Z,99.00
2022-11-05T19:58:54.019Z,99.00
2022-11-05T20:01:24.962Z,98.90
2022-11-05T20:03:53.453Z,99.00
2022-11-05T20:06:23.683Z,97.90
2022-11-05T20:09:19.896Z,95.50
2022-11-05T20:11:42.014Z,97.50
2022-11-05T20:14:11.322Z,99.40
2022-11-05T20:16:40.194Z,99.30
2022-11-05T20:19:10.257Z,99.20
2022-11-05T20:21:38.897Z,99.10
2022-11-05T20:24:07.414Z,98.90
2022-11-05T20:26:35.366Z,98.80
2022-11-05T20:29:05.076Z,98.60
2022-11-05T20:31:33.008Z,98.40
2022-11-05T20:34:01.077Z,98.30
2022-11-05T20:36:28.949Z,96.00
2022-11-05T20:38:59.374Z,98.00
2022-11-05T20:41:27.639Z,98.10
2022-11-05T20:43:55.807Z,98.10
2022-11-05T20:46:25.073Z,98.00
2022-11-05T20:48:53.169Z,98.10
2022-11-05T20:51:22.887Z,98.10
2022-11-05T20:53:54.668Z,97.90
2022-11-05T20:56:25.593Z,98.00
2022-11-05T20:58:53.902Z,98.10
2022-11-05T21:01:21.900Z,98.00
2022-11-05T21:03:51.436Z,98.10
2022-11-05T21:06:19.296Z,97.90
2022-11-05T21:08:48.502Z,97.90
2022-11-05T21:11:16.785Z,97.70
2022-11-05T21:13:44.673Z,97.80
2022-11-05T21:16:17.832Z,97.70
2022-11-05T21:18:46.847Z,97.60
2022-11-05T21:21:19.787Z,97.60
2022-11-05T21:23:47.760Z,97.60
2022-11-05T21:26:17.650Z,97.50
2022-11-05T21:28:45.598Z,95.70
2022-11-05T21:31:13.705Z,97.80
2022-11-05T21:33:41.566Z,97.70
2022-11-05T21:36:11.766Z,97.60
2022-11-05T21:38:42.085Z,97.60
2022-11-05T21:41:11.477Z,97.50
2022-11-05T21:43:39.677Z,96.90
2022-11-05T21:46:07.612Z,97.50
2022-11-05T21:48:35.498Z,97.60
2022-11-05T21:51:32.429Z,97.70
2022-11-05T21:54:18.946Z,97.20
2022-11-05T21:57:08.301Z,98.10
2022-11-05T21:59:55.426Z,97.90
2022-11-05T22:02:25.207Z,97.80
2022-11-05T22:04:54.784Z,97.80
2022-11-05T22:07:24.534Z,97.70
2022-11-05T22:09:54.016Z,97.90
2022-11-05T22:12:22.798Z,97.60
2022-11-05T22:14:50.655Z,97.50
2022-11-05T22:17:18.855Z,97.40
2022-11-05T22:19:46.758Z,97.30
2022-11-05T22:22:14.946Z,97.20
2022-11-05T22:24:43.617Z,97.20
2022-11-05T22:27:15.613Z,97.40
2022-11-05T22:29:43.571Z,97.10
2022-11-05T22:32:12.097Z,95.20
2022-11-05T22:34:40.001Z,97.20
2022-11-05T22:37:08.920Z,95.90
2022-11-05T22:39:36.810Z,96.80
2022-11-05T22:42:08.570Z,97.50
2022-11-05T22:44:38.458Z,96.90
2022-11-05T22:47:06.703Z,97.50
2022-11-05T22:49:35.236Z,97.60
2022-11-05T22:52:03.137Z,97.60
2022-11-05T22:54:36.419Z,97.60
2022-11-05T22:57:06.852Z,96.90
2022-11-05T22:59:34.723Z,93.90
2022-11-05T23:02:09.242Z,97.60
2022-11-05T23:04:38.170Z,97.80
2022-11-05T23:07:27.613Z,96.00
2022-11-05T23:10:13.920Z,98.00
2022-11-05T23:12:43.089Z,97.60
2022-11-05T23:15:31.714Z,98.00
2022-11-05T23:18:18.867Z,97.70
2022-11-05T23:21:04.426Z,97.80
2022-11-05T23:23:49.856Z,97.70
2022-11-05T23:26:35.258Z,97.70
2022-11-05T23:29:03.136Z,97.80
2022-11-05T23:31:44.926Z,97.70
2022-11-05T23:34:14.189Z,97.50
2022-11-05T23:36:59.465Z,93.80
2022-11-05T23:39:27.322Z,97.50
2022-11-05T23:42:12.843Z,98.00
2022-11-05T23:44:58.282Z,96.80
2022-11-05T23:47:43.736Z,97.70
2022-11-05T23:50:12.933Z,97.60
2022-11-05T23:52:40.790Z,97.50
2022-11-05T23:55:09.479Z,97.40
2022-11-05T23:57:37.998Z,97.20
